Time;durP1;ratioP1;P1;durP2;ratioP2;P2;SDS_P1;SDS_P2;PMS_P1;PMS_P2;Temp;Humidity;BMP_temperature;BMP_pressure;BME280_temperature;BME280_humidity;BME280_pressure;Samples;Min_cycle;Max_cycle;Signal;HPM_P1;HPM_P2
2022/02/05 00:02:03;;;;;;;3.53;0.63;;;;;;;1.61;72.66;100368.31;5008858;28;20112;-59
2022/02/05 00:04:32;;;;;;;1.35;0.50;;;;;;;1.62;72.66;100374.31;5005143;28;20564;-58
2022/02/05 00:06:58;;;;;;;2.28;0.90;;;;;;;1.61;72.68;100378.53;5012012;28;20061;-58
2022/02/05 00:09:56;;;;;;;0.85;0.30;;;;;;;1.61;72.19;100382.75;5005008;28;20046;-58
2022/02/05 00:12:30;;;;;;;3.40;1.02;;;;;;;1.61;72.29;100387.84;5014532;28;20127;-59
2022/02/05 00:15:18;;;;;;;4.32;1.30;;;;;;;1.57;71.76;100386.88;4982508;28;20635;-59
2022/02/05 00:33:12;;;;;;;2.63;1.10;;;;;;;1.56;72.06;100385.16;5016655;28;20191;-57
2022/02/05 00:40:01;;;;;;;0.93;0.65;;;;;;;1.52;72.11;100379.03;5009734;28;20108;-58
2022/02/05 00:42:37;;;;;;;4.50;0.85;;;;;;;1.51;72.84;100381.50;5007456;28;20115;-58
2022/02/05 00:45:08;;;;;;;2.97;0.77;;;;;;;1.51;71.95;100384.06;5007321;28;20135;-58
2022/02/05 00:47:38;;;;;;;2.53;0.55;;;;;;;1.50;72.72;100390.88;5006393;28;20049;-59
2022/02/05 00:50:09;;;;;;;1.48;0.63;;;;;;;1.48;72.56;100381.38;5008455;28;20497;-58
2022/02/05 00:52:36;;;;;;;5.70;0.95;;;;;;;1.47;72.61;100390.75;5005008;28;20046;-58
2022/02/05 00:55:09;;;;;;;1.58;0.65;;;;;;;1.48;73.07;100387.38;5005920;28;20049;-58
2022/02/05 01:00:22;;;;;;;4.75;0.50;;;;;;;1.44;72.99;100389.75;5022309;28;20049;-58
2022/02/05 01:02:49;;;;;;;4.97;0.38;;;;;;;1.45;73.16;100399.16;5008221;28;20103;-60
2022/02/05 01:05:17;;;;;;;4.47;0.88;;;;;;;1.43;72.86;100394.00;5005821;28;20564;-59
2022/02/05 01:07:44;;;;;;;2.20;0.40;;;;;;;1.44;73.02;100403.38;5007086;28;20080;-60
2022/02/05 01:10:10;;;;;;;3.28;1.17;;;;;;;1.43;72.49;100394.00;5003968;28;20133;-60
2022/02/05 01:12:41;;;;;;;2.78;0.50;;;;;;;1.45;71.94;100401.72;5006906;28;20150;-59
2022/02/05 01:15:09;;;;;;;7.93;1.23;;;;;;;1.44;72.06;100405.94;5006503;28;20053;-60
2022/02/05 01:17:43;;;;;;;3.22;0.90;;;;;;;1.45;72.64;100402.56;5008781;28;20768;-60
2022/02/05 01:23:05;;;;;;;1.65;0.43;;;;;;;1.43;73.04;100398.22;5019064;28;20045;-59
2022/02/05 01:25:39;;;;;;;3.65;0.95;;;;;;;1.43;72.52;100394.00;5009444;28;20046;-60
2022/02/05 01:28:16;;;;;;;1.05;0.40;;;;;;;1.41;72.37;100391.38;5007100;28;20081;-57
2022/02/05 01:30:49;;;;;;;2.83;1.27;;;;;;;1.41;73.00;100385.38;5009386;28;20413;-60
2022/02/05 01:33:42;;;;;;;3.53;0.77;;;;;;;1.41;72.38;100390.50;5015108;28;20050;-59
2022/02/05 01:36:37;;;;;;;5.97;0.75;;;;;;;1.39;73.08;100387.88;5009956;28;20057;-60
2022/02/05 01:53:07;;;;;;;3.58;0.32;;;;;;;1.31;72.56;100408.81;5011651;28;20074;-60
2022/02/05 01:55:57;;;;;;;2.20;0.73;;;;;;;1.31;72.62;100424.13;5012156;28;20095;-59
2022/02/05 02:07:24;;;;;;;3.10;0.47;;;;;;;1.28;72.57;100435.94;5020687;28;20050;-58
2022/02/05 02:12:18;;;;;;;2.60;0.40;;;;;;;1.28;72.61;100435.94;5021950;28;20196;-60
2022/02/05 02:14:57;;;;;;;3.38;0.75;;;;;;;1.27;72.91;100431.66;5005619;28;20054;-59
2022/02/05 02:18:07;;;;;;;1.05;0.70;;;;;;;1.29;72.63;100441.94;5007461;28;20572;-58
2022/02/05 02:20:35;;;;;;;4.22;0.43;;;;;;;1.29;71.99;100441.94;5017638;28;20034;-60
2022/02/05 02:23:10;;;;;;;6.75;0.93;;;;;;;1.28;73.20;100445.25;5020927;28;20100;-59
2022/02/05 02:25:54;;;;;;;1.95;0.77;;;;;;;1.30;73.05;100445.34;5006420;28;20465;-58
2022/02/05 02:28:32;;;;;;;2.58;0.60;;;;;;;1.27;72.77;100444.41;5009830;28;20041;-61
2022/02/05 02:31:06;;;;;;;2.55;0.50;;;;;;;1.29;72.06;100452.13;5011644;28;20108;-59
2022/02/05 02:33:38;;;;;;;5.38;0.95;;;;;;;1.30;71.90;100443.66;5009247;28;20112;-61
2022/02/05 02:36:15;;;;;;;1.15;0.63;;;;;;;1.30;72.05;100440.22;5011740;28;20054;-62
2022/02/05 02:38:48;;;;;;;5.05;0.82;;;;;;;1.28;72.27;100438.50;5010832;28;20046;-60
2022/02/05 02:41:22;;;;;;;3.17;1.05;;;;;;;1.28;72.95;100435.94;5007608;28;20563;-58
2022/02/05 02:43:49;;;;;;;3.85;0.73;;;;;;;1.30;73.24;100433.47;5009100;28;20069;-59
2022/02/05 02:46:15;;;;;;;7.38;0.70;;;;;;;1.30;72.30;100433.47;5010478;28;20049;-58
2022/02/05 02:48:45;;;;;;;7.10;0.93;;;;;;;1.30;72.01;100415.59;5006015;28;20093;-57
2022/02/05 02:56:55;;;;;;;6.45;0.80;;;;;;;1.30;72.90;100430.03;5004814;28;20046;-58
2022/02/05 02:59:27;;;;;;;4.25;0.60;;;;;;;1.30;72.55;100437.69;5010283;28;20540;-59
2022/02/05 03:02:00;;;;;;;6.90;0.45;;;;;;;1.30;73.23;100438.56;5005042;28;20042;-59
2022/02/05 03:04:27;;;;;;;3.03;0.50;;;;;;;1.29;72.79;100452.13;5008308;28;20100;-60
2022/02/05 03:06:54;;;;;;;2.95;0.82;;;;;;;1.30;72.74;100447.88;5006705;28;20057;-59
2022/02/05 03:09:21;;;;;;;1.17;0.63;;;;;;;1.31;72.76;100449.66;5011762;28;20609;-60
2022/02/05 03:11:48;;;;;;;1.45;0.40;;;;;;;1.31;72.65;100450.50;5006539;28;20115;-58
2022/02/05 03:14:14;;;;;;;8.23;0.77;;;;;;;1.31;73.06;100449.66;5008266;28;20100;-61
2022/02/05 03:16:47;;;;;;;9.82;0.50;;;;;;;1.32;73.58;100456.50;5006941;28;20050;-61
2022/02/05 03:19:15;;;;;;;4.03;0.50;;;;;;;1.33;72.53;100454.00;5007316;28;20108;-60
2022/02/05 03:21:43;;;;;;;2.72;0.63;;;;;;;1.32;73.12;100457.34;5007703;28;20053;-60
2022/02/05 03:24:10;;;;;;;8.77;1.08;;;;;;;1.33;73.36;100455.69;5005990;28;20471;-60
2022/02/05 03:26:38;;;;;;;2.40;0.70;;;;;;;1.31;73.04;100460.72;5005380;28;20045;-60
2022/02/05 03:29:07;;;;;;;2.08;1.05;;;;;;;1.33;73.32;100450.56;5009243;28;20041;-58
2022/02/05 03:31:34;;;;;;;5.82;1.27;;;;;;;1.32;72.75;100461.59;5007085;28;20046;-60
2022/02/05 03:34:01;;;;;;;6.43;0.30;;;;;;;1.33;72.85;100458.22;5008319;28;20069;-59
2022/02/05 03:36:28;;;;;;;4.57;0.50;;;;;;;1.32;73.43;100454.78;5006744;28;20733;-59
2022/02/05 03:38:54;;;;;;;1.92;0.20;;;;;;;1.34;72.22;100459.97;5009761;28;20057;-59
2022/02/05 03:41:21;;;;;;;1.33;0.35;;;;;;;1.32;73.72;100461.59;5007589;28;20050;-61
2022/02/05 03:43:48;;;;;;;2.38;0.40;;;;;;;1.34;73.40;100465.06;5010249;28;20070;-60
2022/02/05 03:46:14;;;;;;;1.75;0.35;;;;;;;1.35;72.79;100461.72;5005077;28;20061;-59
2022/02/05 03:48:41;;;;;;;2.67;0.63;;;;;;;1.35;73.16;100467.69;5008350;28;20490;-60
2022/02/05 03:51:08;;;;;;;2.13;0.60;;;;;;;1.35;73.02;100461.72;5007447;28;20100;-58
2022/02/05 03:53:36;;;;;;;3.35;0.43;;;;;;;1.36;74.04;100463.47;5005441;28;20053;-59
2022/02/05 03:56:03;;;;;;;0.60;0.40;;;;;;;1.36;73.50;100468.56;5012283;28;20059;-60
2022/02/05 03:58:29;;;;;;;2.53;0.77;;;;;;;1.37;73.58;100472.84;5004865;28;20107;-58
2022/02/05 04:00:56;;;;;;;2.67;0.32;;;;;;;1.38;72.85;100479.69;5007120;28;20505;-60
2022/02/05 04:03:23;;;;;;;3.90;0.50;;;;;;;1.36;72.83;100478.78;5005981;28;20046;-60
2022/02/05 04:05:49;;;;;;;4.40;0.70;;;;;;;1.38;73.79;100482.25;5008313;28;20479;-59
2022/02/05 04:08:17;;;;;;;5.72;0.60;;;;;;;1.37;73.91;100480.50;5002788;28;20054;-60
2022/02/05 04:10:48;;;;;;;1.40;0.90;;;;;;;1.37;73.61;100475.41;5009666;28;20107;-57
2022/02/05 04:18:54;;;;;;;3.30;0.35;;;;;;;1.34;73.93;100472.72;5015901;28;20081;-60
2022/02/05 04:21:22;;;;;;;2.30;0.80;;;;;;;1.33;73.81;100464.22;5005432;28;20465;-60
2022/02/05 04:23:50;;;;;;;3.17;1.20;;;;;;;1.34;73.25;100459.97;5006297;28;20449;-60
2022/02/05 04:26:18;;;;;;;4.75;0.70;;;;;;;1.33;73.19;100463.34;5007400;28;20108;-60
2022/02/05 04:28:45;;;;;;;7.38;0.65;;;;;;;1.32;73.31;100466.69;5003022;28;20076;-60
2022/02/05 04:31:12;;;;;;;2.90;0.40;;;;;;;1.33;73.51;100463.34;5005250;28;20049;-58
2022/02/05 04:33:39;;;;;;;2.55;0.50;;;;;;;1.33;73.65;100463.34;5001571;28;20092;-60
2022/02/05 04:36:07;;;;;;;3.55;0.68;;;;;;;1.33;73.30;100463.34;5006577;28;20522;-60
2022/02/05 04:38:35;;;;;;;3.08;0.50;;;;;;;1.34;73.12;100465.06;5006038;28;20062;-61
2022/02/05 04:41:10;;;;;;;2.95;0.40;;;;;;;1.34;74.17;100467.63;5005514;28;20041;-60
2022/02/05 04:52:25;;;;;;;2.33;0.38;;;;;;;1.30;73.32;100466.63;5005562;28;20042;-59
2022/02/05 04:54:58;;;;;;;4.13;0.93;;;;;;;1.30;73.57;100464.09;5016183;28;20132;-60
2022/02/05 04:57:37;;;;;;;4.30;1.10;;;;;;;1.32;73.23;100451.38;5007930;28;20120;-61
2022/02/05 05:00:37;;;;;;;4.97;0.65;;;;;;;1.34;73.60;100454.84;5003273;28;20050;-61
2022/02/05 05:03:07;;;;;;;0.75;0.20;;;;;;;1.37;73.91;100452.44;5013176;28;20092;-60
2022/02/05 05:05:45;;;;;;;5.40;0.90;;;;;;;1.40;72.91;100455.13;5006496;28;20049;-58
2022/02/05 05:08:34;;;;;;;3.85;0.45;;;;;;;1.42;73.40;100461.19;5006027;28;20045;-61
2022/02/05 05:22:04;;;;;;;3.05;0.73;;;;;;;1.49;74.33;100457.19;5021016;28;20551;-60
2022/02/05 05:24:31;;;;;;;5.82;0.50;;;;;;;1.54;73.41;100454.00;5007328;28;20042;-61
2022/02/05 05:26:58;;;;;;;7.75;0.90;;;;;;;1.56;74.11;100448.09;5007849;28;20053;-60
2022/02/05 05:29:25;;;;;;;4.15;0.60;;;;;;;1.58;73.52;100454.16;5003056;28;20477;-60
2022/02/05 05:31:51;;;;;;;3.40;0.57;;;;;;;1.59;74.75;100445.66;5007287;28;20054;-60
2022/02/05 05:34:18;;;;;;;2.90;0.63;;;;;;;1.61;73.49;100433.81;5004322;28;20054;-60
2022/02/05 05:36:45;;;;;;;5.10;0.47;;;;;;;1.64;74.80;100439.06;5005777;28;20104;-61
2022/02/05 05:39:13;;;;;;;4.07;0.70;;;;;;;1.66;73.44;100438.31;5005332;28;20066;-61
2022/02/05 05:41:41;;;;;;;5.28;0.40;;;;;;;1.70;73.52;100434.19;5002960;28;20100;-61
2022/02/05 05:47:14;;;;;;;4.00;1.10;;;;;;;1.72;74.47;100430.00;5015933;28;20054;-61
2022/02/05 05:50:01;;;;;;;2.30;0.40;;;;;;;1.73;74.09;100431.78;5005805;28;20081;-60
2022/02/05 05:52:27;;;;;;;10.27;1.05;;;;;;;1.75;74.22;100422.47;5018929;28;20042;-60
2022/02/05 05:54:54;;;;;;;4.15;0.40;;;;;;;1.76;74.61;100424.22;5002737;28;20046;-61
2022/02/05 05:57:21;;;;;;;2.10;0.77;;;;;;;1.76;74.72;100416.53;5006216;28;20046;-59
2022/02/05 05:59:48;;;;;;;6.40;1.25;;;;;;;1.79;74.92;100419.22;5004574;28;20410;-60
2022/02/05 06:02:15;;;;;;;6.53;0.52;;;;;;;1.80;74.62;100418.41;5004181;28;20127;-60
2022/02/05 06:04:41;;;;;;;4.43;1.35;;;;;;;1.80;74.85;100405.63;5003056;28;20433;-60
2022/02/05 06:07:08;;;;;;;2.70;0.40;;;;;;;1.82;74.16;100404.84;5004575;28;20054;-60
2022/02/05 06:09:38;;;;;;;1.38;0.40;;;;;;;1.85;73.57;100397.28;5004697;28;20054;-59
2022/02/05 06:12:05;;;;;;;2.67;0.75;;;;;;;1.87;74.72;100401.66;5005261;28;20128;-61
2022/02/05 06:14:32;;;;;;;4.75;0.88;;;;;;;1.89;73.97;100399.16;5003472;28;20048;-60
2022/02/05 06:17:05;;;;;;;4.68;0.68;;;;;;;1.91;74.05;100389.88;5002646;28;20046;-59
2022/02/05 06:19:32;;;;;;;3.38;0.65;;;;;;;1.90;74.04;100396.66;5010444;28;20050;-60
2022/02/05 06:21:59;;;;;;;11.18;1.27;;;;;;;1.92;74.22;100401.81;5007826;28;20042;-60
2022/02/05 06:24:25;;;;;;;3.15;0.75;;;;;;;1.93;73.82;100406.13;5010505;28;20050;-61
2022/02/05 06:26:52;;;;;;;3.70;0.52;;;;;;;1.93;74.20;100401.88;5008759;28;20054;-60
2022/02/05 06:29:18;;;;;;;3.85;0.73;;;;;;;1.95;74.71;100396.81;5008717;28;20054;-61
2022/02/05 06:31:45;;;;;;;7.53;0.80;;;;;;;1.94;74.06;100402.75;5008878;28;20112;-61
2022/02/05 06:34:11;;;;;;;13.68;2.67;;;;;;;1.96;74.57;100401.13;5005263;28;20050;-59
2022/02/05 06:36:38;;;;;;;7.07;1.95;;;;;;;1.97;75.00;100402.88;5010136;28;20076;-60
2022/02/05 06:39:05;;;;;;;7.45;2.13;;;;;;;1.97;74.68;100396.88;5007000;28;20053;-60
2022/02/05 06:41:31;;;;;;;4.90;1.15;;;;;;;1.98;73.73;100389.28;5009513;28;20065;-60
2022/02/05 06:43:58;;;;;;;3.80;1.58;;;;;;;2.00;73.96;100386.78;5006165;28;20064;-60
2022/02/05 06:46:24;;;;;;;8.95;1.17;;;;;;;1.99;73.78;100396.13;5007667;28;20046;-60
2022/02/05 06:48:51;;;;;;;5.40;1.17;;;;;;;2.00;74.01;100402.13;5009817;28;20085;-60
2022/02/05 06:51:17;;;;;;;3.60;0.50;;;;;;;2.02;74.43;100401.38;5007552;28;20054;-60
2022/02/05 06:53:44;;;;;;;17.85;5.70;;;;;;;2.02;74.95;100393.69;5007950;28;20426;-61
2022/02/05 06:56:11;;;;;;;7.93;2.53;;;;;;;2.03;73.97;100407.34;5005977;28;20050;-61
2022/02/05 06:58:37;;;;;;;11.88;3.78;;;;;;;2.02;74.50;100396.25;5007909;28;20046;-61
2022/02/05 07:01:04;;;;;;;2.50;0.80;;;;;;;2.02;74.23;100408.16;5005693;28;20050;-60
2022/02/05 07:03:31;;;;;;;13.55;1.67;;;;;;;2.02;73.94;100403.91;5013675;28;20050;-60
2022/02/05 07:05:58;;;;;;;7.75;0.98;;;;;;;2.00;74.42;100403.00;5007600;28;20049;-60
2022/02/05 07:08:24;;;;;;;4.22;1.10;;;;;;;1.99;74.28;100411.47;5006404;28;20042;-60
2022/02/05 07:10:51;;;;;;;8.07;1.70;;;;;;;1.96;73.68;100411.34;5006986;28;20406;-61
2022/02/05 07:13:20;;;;;;;9.73;1.75;;;;;;;1.94;73.56;100423.19;5005599;28;20054;-61
2022/02/05 07:16:06;;;;;;;10.40;2.03;;;;;;;1.93;73.80;100427.44;5007649;28;20195;-59
2022/02/05 07:21:30;;;;;;;6.25;0.85;;;;;;;1.89;74.33;100432.38;5021009;28;20054;-60
2022/02/05 07:24:16;;;;;;;10.57;1.58;;;;;;;1.85;73.36;100428.81;5006663;28;20080;-60
2022/02/05 07:29:29;;;;;;;6.95;1.30;;;;;;;1.84;73.53;100426.19;5023074;28;20046;-60
2022/02/05 07:31:58;;;;;;;4.40;0.70;;;;;;;1.79;73.95;100426.88;5008204;28;20057;-60
2022/02/05 07:34:27;;;;;;;6.10;1.35;;;;;;;1.80;73.33;100431.19;5008157;28;20077;-60
2022/02/05 07:36:59;;;;;;;10.90;2.00;;;;;;;1.78;73.68;100437.03;4998688;28;20045;-60
2022/02/05 07:39:27;;;;;;;18.42;4.63;;;;;;;1.79;73.94;100438.81;5004447;28;20057;-60
2022/02/05 07:41:54;;;;;;;7.88;2.42;;;;;;;1.78;75.14;100432.81;5003544;28;20038;-60
2022/02/05 07:44:21;;;;;;;9.68;1.63;;;;;;;1.79;74.54;100429.44;5000909;28;20112;-62
2022/02/05 07:46:50;;;;;;;4.53;1.10;;;;;;;1.78;75.02;100435.38;5001748;28;20046;-61
2022/02/05 07:49:19;;;;;;;5.90;1.45;;;;;;;1.79;75.00;100426.88;5005167;28;20081;-60
2022/02/05 07:51:46;;;;;;;5.85;1.77;;;;;;;1.82;74.03;100432.94;5004470;28;20054;-59
2022/02/05 07:54:13;;;;;;;19.00;3.55;;;;;;;1.83;74.52;100434.69;5005482;28;20049;-61
2022/02/05 07:56:43;;;;;;;4.72;1.20;;;;;;;1.84;74.24;100436.41;5003624;28;20065;-60
2022/02/05 07:59:11;;;;;;;11.00;2.65;;;;;;;1.86;74.28;100442.47;5002610;28;20054;-59
2022/02/05 08:01:38;;;;;;;4.97;0.95;;;;;;;1.88;74.15;100443.38;5006375;28;20120;-61
2022/02/05 08:04:05;;;;;;;6.28;1.27;;;;;;;1.89;73.88;100434.94;5002452;28;20042;-60
2022/02/05 08:06:34;;;;;;;3.22;1.35;;;;;;;1.89;75.29;100435.78;5004147;28;21249;-59
2022/02/05 08:09:11;;;;;;;6.38;0.77;;;;;;;1.92;74.57;100435.91;5003009;28;20100;-60
2022/02/05 08:11:42;;;;;;;4.85;1.27;;;;;;;1.95;75.25;100430.03;5002388;28;20160;-59
2022/02/05 08:14:11;;;;;;;2.72;1.02;;;;;;;2.00;74.94;100423.44;5003022;28;20096;-60
2022/02/05 08:16:49;;;;;;;5.68;1.33;;;;;;;2.13;74.16;100422.19;5003424;28;20053;-60
2022/02/05 08:19:16;;;;;;;3.72;0.45;;;;;;;2.24;73.63;100422.63;5006024;28;20551;-59
2022/02/05 08:22:00;;;;;;;7.60;0.98;;;;;;;2.35;74.28;100432.34;5004836;28;20054;-60
2022/02/05 08:24:26;;;;;;;5.10;1.02;;;;;;;2.38;73.72;100415.47;5004003;28;20477;-60
2022/02/05 08:26:53;;;;;;;6.35;1.00;;;;;;;2.37;73.02;100416.28;5005754;28;20116;-60
2022/02/05 08:29:20;;;;;;;3.67;0.70;;;;;;;2.37;73.47;100425.63;4990056;28;20046;-61
2022/02/05 08:31:47;;;;;;;8.55;0.98;;;;;;;2.35;74.64;100425.56;4983318;28;20050;-61
2022/02/05 08:34:15;;;;;;;2.40;1.08;;;;;;;2.37;73.60;100418.84;4980737;28;20117;-60
2022/02/05 08:36:44;;;;;;;8.50;1.90;;;;;;;2.63;74.12;100433.38;4983735;28;20070;-58
2022/02/05 08:39:12;;;;;;;2.90;1.13;;;;;;;3.10;73.48;100428.16;4983971;28;20077;-60
2022/02/05 08:41:39;;;;;;;9.40;1.55;;;;;;;3.63;73.26;100429.00;4981586;28;20042;-60
2022/02/05 08:44:06;;;;;;;4.63;1.33;;;;;;;4.01;71.56;100425.94;4983268;28;20188;-61
2022/02/05 08:46:34;;;;;;;4.22;1.23;;;;;;;4.15;70.59;100419.50;4986367;28;20043;-60
2022/02/05 08:49:03;;;;;;;2.28;0.80;;;;;;;4.18;70.20;100413.56;4981721;28;20048;-59
2022/02/05 08:51:31;;;;;;;3.20;1.10;;;;;;;4.09;69.42;100404.78;4983639;28;20054;-58
2022/02/05 08:53:59;;;;;;;7.13;1.02;;;;;;;4.21;70.11;100398.28;4982288;28;20080;-61
2022/02/05 08:56:26;;;;;;;6.20;1.27;;;;;;;4.89;71.24;100400.16;4985033;28;20050;-61
2022/02/05 08:58:55;;;;;;;6.30;0.63;;;;;;;5.62;69.34;100390.81;4981705;28;20050;-60
2022/02/05 09:01:28;;;;;;;3.55;0.90;;;;;;;6.36;67.09;100398.41;4979899;28;20487;-59
2022/02/05 09:04:02;;;;;;;3.28;0.85;;;;;;;7.00;66.34;100396.16;4982315;28;20514;-60
2022/02/05 09:06:34;;;;;;;4.45;0.63;;;;;;;7.65;65.35;100396.31;4981362;28;20050;-61
2022/02/05 09:11:55;;;;;;;5.95;0.63;;;;;;;8.78;62.50;100399.47;4998255;28;20120;-60
2022/02/05 09:14:32;;;;;;;2.97;0.63;;;;;;;8.42;62.00;100396.50;4986932;28;20065;-62
2022/02/05 09:16:59;;;;;;;7.13;1.75;;;;;;;7.85;62.21;100394.03;4984329;28;20427;-61
2022/02/05 09:19:28;;;;;;;12.20;1.08;;;;;;;7.37;62.13;100377.84;4988035;28;20054;-60
2022/02/05 09:21:55;;;;;;;4.35;0.75;;;;;;;6.91;63.63;100361.66;4984086;28;20093;-62
2022/02/05 09:24:21;;;;;;;7.28;1.63;;;;;;;6.55;63.26;100367.88;4986046;28;20442;-60
2022/02/05 09:26:56;;;;;;;8.02;1.25;;;;;;;6.29;64.51;100381.09;5004836;28;20057;-60
2022/02/05 09:29:23;;;;;;;2.75;0.60;;;;;;;6.67;65.82;100352.69;5004075;28;20104;-60
2022/02/05 09:31:50;;;;;;;7.07;1.08;;;;;;;7.67;65.16;100343.94;5004493;28;20057;-61
2022/02/05 09:34:17;;;;;;;3.45;0.80;;;;;;;8.69;63.97;100348.63;5001834;28;20058;-57
2022/02/05 09:36:44;;;;;;;8.65;1.08;;;;;;;9.66;62.09;100338.16;5001671;28;20049;-59
2022/02/05 09:39:12;;;;;;;5.82;1.27;;;;;;;10.57;61.21;100344.56;5014493;28;22005;-59
2022/02/05 09:41:40;;;;;;;6.07;0.95;;;;;;;11.13;59.50;100339.41;5005497;28;20118;-58
2022/02/05 09:44:08;;;;;;;5.45;0.77;;;;;;;11.31;57.01;100335.94;5007228;28;20054;-59
2022/02/05 09:46:35;;;;;;;4.47;0.93;;;;;;;11.35;57.27;100324.69;5005500;28;20104;-60
2022/02/05 09:49:04;;;;;;;2.50;0.60;;;;;;;11.98;56.76;100317.63;5004059;28;20100;-59
2022/02/05 09:51:35;;;;;;;6.03;1.35;;;;;;;12.68;54.59;100317.25;5006506;28;20533;-60
2022/02/05 09:54:04;;;;;;;9.93;1.38;;;;;;;13.35;54.08;100339.25;5007228;28;20045;-59
2022/02/05 09:56:34;;;;;;;10.05;1.05;;;;;;;13.85;51.79;100325.75;5008424;28;20069;-59
2022/02/05 09:59:01;;;;;;;7.10;1.67;;;;;;;14.39;51.29;100322.41;5009752;28;20038;-57
2022/02/05 10:01:32;;;;;;;6.07;0.82;;;;;;;14.77;48.81;100316.69;5007610;28;20135;-56
2022/02/05 10:03:59;;;;;;;7.15;1.48;;;;;;;15.29;50.39;100319.28;5009827;28;20061;-58
2022/02/05 10:06:30;;;;;;;10.10;1.35;;;;;;;15.74;47.23;100309.78;5007170;28;20057;-56
2022/02/05 10:09:04;;;;;;;2.40;0.80;;;;;;;15.96;46.69;100293.69;5006909;28;20109;-60
2022/02/05 10:11:48;;;;;;;4.07;1.08;;;;;;;16.40;47.20;100302.31;5006939;28;20041;-59
2022/02/05 10:14:21;;;;;;;3.90;1.30;;;;;;;16.90;45.97;100297.63;5003529;28;20045;-57
2022/02/05 10:16:51;;;;;;;7.70;1.52;;;;;;;17.26;45.60;100296.75;5004287;28;20070;-59
2022/02/05 10:19:20;;;;;;;8.55;1.35;;;;;;;17.47;44.03;100296.16;5007769;28;20111;-61
2022/02/05 10:22:01;;;;;;;2.53;1.13;;;;;;;17.09;41.11;100282.34;5006214;28;20110;-59
2022/02/05 10:24:29;;;;;;;3.38;0.85;;;;;;;16.85;42.44;100281.22;5005332;28;20061;-61
2022/02/05 10:26:56;;;;;;;7.72;0.90;;;;;;;16.34;43.58;100278.91;5008052;28;20049;-60
2022/02/05 10:29:23;;;;;;;4.13;1.33;;;;;;;16.03;43.18;100271.75;5006393;28;20051;-60
2022/02/05 10:32:13;;;;;;;4.82;0.98;;;;;;;15.87;44.64;100266.00;5004893;28;20522;-60
2022/02/05 10:35:04;;;;;;;7.43;1.13;;;;;;;15.17;44.26;100265.59;5006464;28;20084;-59
2022/02/05 10:37:42;;;;;;;5.00;1.35;;;;;;;14.38;45.67;100255.56;5004695;28;20054;-60
2022/02/05 10:40:12;;;;;;;7.40;1.83;;;;;;;13.84;47.19;100248.50;5007204;28;20045;-60
2022/02/05 10:43:03;;;;;;;6.70;1.35;;;;;;;13.08;46.95;100245.00;5005391;28;20120;-62
2022/02/05 10:45:48;;;;;;;2.85;0.73;;;;;;;12.40;48.64;100246.44;5006793;28;20053;-62
2022/02/05 10:48:18;;;;;;;4.47;1.02;;;;;;;11.99;50.43;100233.66;5009256;28;20490;-61
2022/02/05 10:50:47;;;;;;;5.43;1.33;;;;;;;11.74;51.02;100232.94;5012597;28;20049;-59
2022/02/05 10:53:25;;;;;;;8.48;1.13;;;;;;;11.93;50.74;100233.72;5003898;28;20811;-62
2022/02/05 10:56:03;;;;;;;10.18;1.00;;;;;;;12.06;50.80;100224.16;5009493;28;20050;-62
2022/02/05 10:59:15;;;;;;;8.52;1.90;;;;;;;11.74;50.08;100223.44;5006466;28;20042;-61
2022/02/05 11:07:22;;;;;;;4.13;0.80;;;;;;;10.76;53.70;100214.19;5006323;28;20046;-61
2022/02/05 11:09:51;;;;;;;3.85;0.68;;;;;;;10.71;54.13;100215.91;5015581;28;20095;-61
2022/02/05 11:12:21;;;;;;;3.97;1.75;;;;;;;10.66;54.45;100220.22;5007124;28;20100;-60
2022/02/05 11:15:09;;;;;;;6.57;1.58;;;;;;;10.63;54.34;100222.81;5008730;28;20405;-63
2022/02/05 11:20:25;;;;;;;9.32;1.00;;;;;;;10.46;54.61;100213.31;5005218;28;20042;-61
2022/02/05 11:23:11;;;;;;;5.28;0.80;;;;;;;10.33;55.05;100202.06;5004869;28;20165;-61
2022/02/05 11:25:40;;;;;;;4.47;0.85;;;;;;;10.10;55.46;100196.88;5002735;28;20497;-62
2022/02/05 11:28:10;;;;;;;4.90;0.93;;;;;;;9.85;56.16;100189.91;5006885;28;20482;-62
2022/02/05 11:30:39;;;;;;;;;;;;;;;9.61;56.60;100190.69;5000765;28;20053;-61
2022/02/05 11:33:23;;;;;;;9.88;1.70;;;;;;;9.59;57.15;100176.94;5002613;28;21409;-62
2022/02/05 11:36:39;;;;;;;2.45;0.73;;;;;;;9.44;57.70;100172.53;5007685;28;20145;-62
2022/02/05 11:38:42;;;;;;;4.28;0.82;;;;;;;9.28;57.80;100166.47;5013164;28;20058;-61
2022/02/05 11:41:31;;;;;;;2.97;0.75;;;;;;;8.99;58.71;100143.03;5006747;28;20084;-60
2022/02/05 11:44:21;;;;;;;5.00;1.25;;;;;;;8.88;58.82;100147.28;5018036;28;20092;-60
2022/02/05 11:47:27;;;;;;;3.08;0.88;;;;;;;8.80;59.63;100143.78;5016544;28;20182;-62
2022/02/05 11:50:15;;;;;;;4.05;0.80;;;;;;;8.86;59.30;100138.69;5006298;28;20061;-62
2022/02/05 11:52:55;;;;;;;8.43;2.22;;;;;;;8.93;59.79;100139.56;5019837;28;20050;-62
2022/02/05 11:55:33;;;;;;;4.05;0.95;;;;;;;8.99;60.63;100122.38;5004332;28;20193;-61
2022/02/05 11:58:02;;;;;;;6.57;1.55;;;;;;;9.08;60.11;100102.59;5007781;28;20050;-60
2022/02/05 12:00:34;;;;;;;15.43;3.47;;;;;;;9.08;60.10;100108.66;5005971;28;20164;-62
2022/02/05 12:03:34;;;;;;;6.65;1.92;;;;;;;9.12;60.14;100104.38;5006580;28;20074;-59
2022/02/05 12:06:07;;;;;;;2.88;1.05;;;;;;;9.25;59.69;100090.63;4985491;28;20380;-61
2022/02/05 12:08:37;;;;;;;6.53;2.47;;;;;;;9.34;60.28;100073.41;5007476;28;20532;-61
2022/02/05 12:11:24;;;;;;;10.57;2.00;;;;;;;9.41;60.58;100080.31;5005704;28;20076;-60
2022/02/05 12:14:12;;;;;;;5.35;1.75;;;;;;;9.48;60.37;100071.72;4991551;28;20348;-61
2022/02/05 12:16:59;;;;;;;13.38;2.72;;;;;;;9.47;60.09;100077.78;5004796;28;20053;-56
2022/02/05 12:19:28;;;;;;;18.73;3.90;;;;;;;9.45;61.07;100082.06;5019780;28;20050;-55
2022/02/05 12:22:03;;;;;;;10.20;1.30;;;;;;;9.41;59.66;100080.31;5005249;28;20108;-60
2022/02/05 12:25:22;;;;;;;4.45;1.20;;;;;;;9.31;61.18;100069.09;5005478;28;20180;-60
2022/02/05 12:27:48;;;;;;;3.72;1.15;;;;;;;9.31;61.29;100069.09;5009615;28;20066;-63
2022/02/05 12:30:36;;;;;;;6.68;1.52;;;;;;;9.18;61.46;100068.19;5008164;28;20490;-61
2022/02/05 12:33:04;;;;;;;3.22;0.80;;;;;;;9.10;61.84;100050.09;5004926;28;20092;-61
2022/02/05 12:35:33;;;;;;;5.45;1.30;;;;;;;9.04;61.93;100055.22;5005365;28;20046;-59
2022/02/05 12:38:01;;;;;;;5.82;0.73;;;;;;;9.06;62.76;100052.66;5001727;28;20104;-61
2022/02/05 12:40:30;;;;;;;9.90;1.88;;;;;;;9.05;62.57;100056.09;5004677;28;20100;-59
2022/02/05 12:42:58;;;;;;;3.67;1.02;;;;;;;9.02;62.93;100071.59;5004489;28;20046;-60
2022/02/05 12:45:52;;;;;;;3.38;0.85;;;;;;;8.93;62.90;100026.78;5003083;28;20070;-60
2022/02/05 12:48:21;;;;;;;6.90;1.10;;;;;;;8.94;62.89;100033.66;5003066;28;20112;-62
2022/02/05 12:50:49;;;;;;;7.05;1.15;;;;;;;8.91;63.19;100027.66;4986587;28;20050;-60
2022/02/05 12:53:17;;;;;;;9.07;1.30;;;;;;;8.90;62.69;100024.19;4981031;28;20058;-60
2022/02/05 12:55:46;;;;;;;14.13;2.50;;;;;;;8.81;62.92;100037.91;4981748;28;20038;-61
2022/02/05 12:58:18;;;;;;;1.95;0.98;;;;;;;8.76;63.37;100018.97;4979657;28;20055;-59
2022/02/05 13:00:45;;;;;;;4.40;1.30;;;;;;;8.74;63.39;100049.94;4983656;28;20058;-60
2022/02/05 13:03:26;;;;;;;3.17;0.70;;;;;;;8.68;63.78;100034.41;4984903;28;20509;-58
2022/02/05 13:05:53;;;;;;;3.95;0.75;;;;;;;8.65;63.92;100031.81;5006633;28;20053;-60
2022/02/05 13:08:20;;;;;;;2.67;1.08;;;;;;;8.62;64.05;100026.66;5001380;28;20045;-60
2022/02/05 13:10:49;;;;;;;3.80;0.68;;;;;;;8.62;64.29;100021.50;5007068;28;20049;-61
2022/02/05 13:13:16;;;;;;;6.78;1.15;;;;;;;8.58;64.81;100019.75;5000147;28;20060;-59
2022/02/05 13:16:03;;;;;;;2.78;0.90;;;;;;;8.55;64.92;100024.91;5004232;28;20042;-59
2022/02/05 13:18:43;;;;;;;1.30;0.52;;;;;;;8.46;65.39;100021.38;4998913;28;20069;-60
2022/02/05 13:25:03;;;;;;;4.93;2.58;;;;;;;8.42;64.50;100021.34;5022999;28;20509;-59
2022/02/05 13:26:57;;;;;;;1.92;0.93;;;;;;;8.39;65.62;100001.53;5022647;28;20517;-60
2022/02/05 13:29:39;;;;;;;8.05;1.83;;;;;;;8.34;65.62;100004.09;5013652;28;20429;-59
2022/02/05 13:35:02;;;;;;;3.33;1.48;;;;;;;8.29;65.72;100002.34;5008372;28;20103;-61
2022/02/05 13:37:46;;;;;;;2.35;0.73;;;;;;;8.26;64.81;99998.03;5013354;28;20061;-57
2022/02/05 13:40:18;;;;;;;3.78;0.82;;;;;;;8.27;65.70;100004.06;5008895;28;20050;-59
2022/02/05 13:42:48;;;;;;;4.07;1.27;;;;;;;8.27;66.31;99998.91;5011697;28;20066;-61